Date,TemperatureHighF,TemperatureAvgF,TemperatureLowF,DewpointHighF,DewpointAvgF,DewpointLowF,HumidityHigh,HumidityAvg,HumidityLow,PressureMaxIn,PressureMinIn,WindSpeedMaxMPH,WindSpeedAvgMPH,GustSpeedMaxMPH,PrecipitationSumIn
2012-10-7,55,48,40,26,23,20,52,39,30,30.16,29.90,22,9,23,0.00
2012-10-8,71,52,38,45,34,24,84,54,26,29.90,29.62,30,10,30,0.02
2012-10-9,50,44,25,45,34,19,89,71,45,30.05,29.71,24,8,28,0.04
2012-10-10,58,41,22,31,25,17,89,58,31,30.17,29.90,25,7,25,0.00
2012-10-11,51,43,27,33,28,18,70,54,45,30.38,29.87,23,5,23,0.00
2012-10-12,54,38,14,41,20,10,92,53,26,30.41,29.98,26,7,26,0.00
2012-10-13,69,54,46,56,49,41,93,82,62,29.98,29.59,19,5,19,0.00
2012-10-14,60,48,33,48,38,28,91,71,42,29.91,29.63,26,5,26,0.00
2012-10-15,68,48,25,43,35,22,92,64,38,29.96,29.68,16,4,16,0.00
2012-10-16,77,59,49,48,44,40,81,61,34,29.68,29.29,15,4,15,0.00
2012-10-17,62,52,43,49,41,33,78,66,51,29.39,29.13,40,17,40,0.00
2012-10-18,46,42,38,43,38,34,91,87,74,29.42,29.21,36,16,36,0.43
2012-10-19,42,41,40,40,38,37,95,90,88,29.76,29.42,26,10,26,0.11
2012-10-20,56,44,37,46,40,35,93,86,67,29.81,29.69,16,4,16,0.00
2012-10-21,70,53,43,53,45,40,89,76,44,29.84,29.68,20,6,20,0.00
2012-10-22,59,53,46,55,48,42,90,83,72,29.84,29.72,15,4,15,0.00
2012-10-23,60,57,53,58,54,50,94,91,86,29.74,29.61,13,4,13,0.01
2012-10-24,55,51,45,53,49,42,93,91,89,29.81,29.72,13,2,13,0.01
2012-10-25,40,34,31,38,30,26,92,84,68,30.27,29.68,28,10,28,0.45
2012-10-26,36,34,32,27,24,22,77,67,58,30.45,30.27,21,9,21,0.00
2012-10-27,39,30,17,26,22,14,89,73,50,30.40,30.28,12,2,12,0.00
2012-10-28,48,38,27,32,28,22,84,68,53,30.32,30.20,20,6,20,0.00
2012-10-29,53,41,34,32,28,24,74,59,43,30.24,30.12,22,8,22,0.00
2012-10-30,46,38,28,31,27,23,85,66,46,30.16,30.05,14,2,14,0.00
2012-10-31,56,37,21,35,27,18,95,69,41,30.07,29.95,11,1,11,0.00
2012-11-1,46,39,30,37,31,23,87,73,48,30.03,29.94,17,2,17,0.00
2012-11-2,41,35,28,29,26,23,82,71,62,30.14,30.01,14,4,14,0.00
2012-11-3,47,37,20,35,29,17,90,73,54,30.21,30.13,9,1,9,0.00
2012-11-4,44,41,37,39,35,31,92,82,68,30.17,30.04,8,2,8,0.12
2012-11-5,39,37,36,37,35,34,93,93,91,30.15,29.93,17,2,17,0.08
2012-11-6,45,41,36,37,35,32,91,79,68,30.01,29.83,28,11,28,0.00
2012-11-7,48,38,27,34,31,24,89,75,55,30.13,29.99,15,3,15,0.00
2012-11-8,57,42,34,37,33,30,90,73,46,29.99,29.87,22,6,22,0.00
2012-11-9,50,38,31,43,34,29,93,87,74,29.94,29.72,17,5,17,0.01
2012-11-10,66,55,43,57,46,40,91,75,45,29.72,29.37,31,10,31,0.40
2012-11-11,43,25,18,41,19,10,91,78,65,30.05,29.54,29,14,29,0.01
2012-11-12,29,21,15,17,13,10,82,72,57,30.37,30.05,31,11,31,0.00
2012-11-13,46,31,14,28,20,10,83,67,40,30.38,30.25,16,3,16,0.00
2012-11-14,51,38,25,33,29,22,88,70,45,30.27,30.13,14,3,14,0.00
2012-11-15,49,40,30,35,30,26,86,70,51,30.36,30.11,16,5,16,0.00
2012-11-16,47,30,10,29,21,6,87,69,42,30.49,30.29,11,4,0,0.00
2012-11-17,57,45,33,38,33,28,85,65,44,30.30,30.10,18,10,15,0.00
2012-11-18,58,47,39,37,33,28,68,58,45,30.10,29.98,15,10,0,0.00
2012-11-19,58,46,37,41,37,32,86,70,53,30.09,29.94,10,4,5,0.00
2012-11-20,59,42,23,39,30,20,91,67,32,30.18,30.01,19,3,19,0.00
2012-11-21,68,54,42,44,39,33,75,59,39,30.01,29.69,27,11,27,0.00
2012-11-22,56,44,27,45,34,18,86,70,56,30.13,29.58,36,14,36,0.00
2012-11-23,27,20,11,18,12,6,83,69,56,30.44,30.13,34,11,34,0.00
2012-11-24,37,23,7,21,14,3,85,68,47,30.42,29.85,22,6,22,0.00
2012-11-25,33,28,26,25,22,19,83,77,60,30.03,29.87,15,4,15,0.00
2012-11-26,25,16,8,18,8,3,81,69,53,30.47,30.20,8,3,5,0.00
2012-11-27,37,23,9,25,15,4,90,74,60,30.43,30.15,23,7,23,0.00
2012-11-28,42,25,7,27,17,3,88,74,52,30.41,30.07,12,4,0,0.00
2012-11-29,45,29,13,29,21,10,88,74,54,30.07,29.96,8,2,0,0.00
2012-11-30,41,30,21,32,26,17,88,83,69,30.13,29.99,17,3,17,0.00
2012-12-1,52,38,27,45,35,24,93,88,71,29.99,29.71,22,6,22,0.00
2012-12-2,59,39,21,42,31,18,91,77,52,29.99,29.79,10,4,17,0.00
2012-12-3,55,45,30,47,32,21,91,61,45,30.00,29.56,21,9,31,0.00
2012-12-4,44,30,17,28,21,11,81,68,50,30.38,30.00,11,2,12,0.00
2012-12-5,48,32,14,30,21,9,81,65,48,30.39,29.81,26,10,27,0.00
2012-12-6,50,40,31,36,31,23,87,69,42,29.98,29.79,25,6,25,0.09
2012-12-7,31,28,26,24,22,21,89,78,66,30.02,29.94,15,4,16,0.00
2012-12-8,31,28,24,29,25,22,92,89,82,30.05,29.87,19,5,20,0.00
2012-12-9,32,28,16,30,26,12,93,91,87,29.89,29.79,26,9,26,0.00
2012-12-10,20,11,0,14,4,-7,79,73,68,30.07,29.89,17,5,17,0.00
2012-12-11,27,18,14,22,14,11,96,84,75,29.97,29.89,12,2,13,0.00
2012-12-12,45,34,24,28,22,17,77,61,46,29.96,29.83,27,11,27,0.01
2012-12-13,32,24,16,24,19,13,87,78,67,30.13,29.90,10,1,11,0.00
2012-12-14,49,33,15,33,24,12,88,72,50,30.12,29.65,18,5,18,0.00
2012-12-15,42,36,29,39,34,27,93,90,70,29.65,29.44,19,6,19,0.30
2012-12-16,29,20,15,27,17,12,92,88,86,29.85,29.63,15,4,17,0.00
2012-12-17,27,24,20,24,22,18,91,90,90,29.79,29.66,6,1,7,0.00
2012-12-18,30,28,26,28,26,24,92,92,91,29.86,29.53,15,4,15,0.07
2012-12-19,31,22,9,28,19,6,92,88,84,30.01,29.86,12,1,12,0.02
2012-12-20,19,15,7,16,11,3,89,85,80,30.21,29.91,26,10,28,0.00
2012-12-21,18,10,2,12,5,-2,92,80,73,30.38,30.20,15,3,17,0.00
2012-12-22,25,16,8,19,11,3,83,79,73,30.22,29.99,16,3,16,0.01
2012-12-23,14,9,3,10,5,-1,92,85,82,30.14,30.06,15,4,15,0.00
2012-12-24,11,6,-6,7,1,-10,87,81,76,30.40,30.05,17,4,17,0.00
2012-12-25,8,0,-6,2,-5,-11,81,80,76,30.60,30.40,10,2,10,0.00
2012-12-26,11,5,-3,7,0,-8,85,79,71,30.49,30.28,8,2,8,0.00
2012-12-27,12,8,2,8,4,-1,86,85,84,30.30,30.23,5,1,5,0.00
2012-12-28,12,11,10,10,8,7,88,87,87,30.12,30.09,10,2,10,0.03
2012-12-29,11,7,0,8,4,-4,87,86,83,30.26,30.11,14,4,14,0.00
2012-12-30,29,14,1,22,10,-3,88,83,74,30.27,29.95,17,5,17,0.00
2012-12-31,19,9,-8,15,4,-13,86,80,74,30.34,30.11,17,2,18,0.00
2013-1-1,17,9,-11,14,4,-15,92,82,77,30.35,30.10,18,5,18,0.00